createdAt,value
2023-01-19T00:00:28.904Z,2.60
2023-01-19T00:02:56.364Z,2.70
2023-01-19T00:05:23.276Z,2.70
2023-01-19T00:07:50.155Z,2.70
2023-01-19T00:10:17.436Z,2.80
2023-01-19T00:12:44.299Z,2.70
2023-01-19T00:15:12.126Z,2.70
2023-01-19T00:17:41.010Z,2.60
2023-01-19T00:20:09.579Z,3.00
2023-01-19T00:22:36.588Z,2.70
2023-01-19T00:25:03.913Z,2.60
2023-01-19T00:27:35.113Z,2.60
2023-01-19T00:30:02.408Z,2.50
2023-01-19T00:32:29.360Z,2.50
2023-01-19T00:34:56.245Z,2.50
2023-01-19T00:37:23.121Z,2.70
2023-01-19T00:39:50.088Z,2.70
2023-01-19T00:42:35.568Z,2.50
2023-01-19T00:45:02.379Z,2.50
2023-01-19T00:47:29.212Z,2.40
2023-01-19T00:49:56.098Z,2.50
2023-01-19T00:52:22.950Z,2.40
2023-01-19T00:54:49.828Z,2.40
2023-01-19T00:57:17.168Z,2.70
2023-01-19T00:59:44.056Z,2.70
2023-01-19T01:02:11.722Z,2.40
2023-01-19T01:04:39.112Z,2.70
2023-01-19T01:07:06.004Z,2.30
2023-01-19T01:09:32.841Z,2.30
2023-01-19T01:11:59.653Z,2.30
2023-01-19T01:14:26.853Z,2.30
2023-01-19T01:16:53.871Z,2.40
2023-01-19T01:19:21.468Z,2.50
2023-01-19T01:21:48.329Z,2.10
2023-01-19T01:24:16.188Z,2.10
2023-01-19T01:26:43.073Z,2.10
2023-01-19T01:29:10.301Z,2.20
2023-01-19T01:31:37.299Z,2.30
2023-01-19T01:34:04.565Z,2.20
2023-01-19T01:36:33.440Z,2.10
2023-01-19T01:39:00.394Z,2.10
2023-01-19T01:41:27.541Z,2.10
2023-01-19T01:44:01.770Z,2.10
2023-01-19T01:46:31.191Z,2.10
2023-01-19T01:49:05.630Z,2.40
2023-01-19T01:51:46.889Z,2.50
2023-01-19T01:54:29.971Z,2.30
2023-01-19T01:57:01.954Z,2.10
2023-01-19T01:59:39.201Z,2.10
2023-01-19T02:02:29.938Z,2.10
2023-01-19T02:05:04.819Z,2.10
2023-01-19T02:08:07.243Z,2.10
2023-01-19T02:10:52.829Z,2.10
2023-01-19T02:13:20.770Z,2.10
2023-01-19T02:15:52.888Z,2.10
2023-01-19T02:18:22.750Z,2.20
2023-01-19T02:21:07.685Z,2.10
2023-01-19T02:23:37.279Z,2.10
2023-01-19T02:26:04.792Z,2.20
2023-01-19T02:28:32.191Z,2.20
2023-01-19T02:30:59.265Z,2.20
2023-01-19T02:33:26.123Z,2.20
2023-01-19T02:35:55.691Z,2.30
2023-01-19T02:38:24.984Z,2.20
2023-01-19T02:40:53.304Z,2.20
2023-01-19T02:43:20.763Z,2.20
2023-01-19T02:45:48.302Z,2.30
2023-01-19T02:48:17.983Z,2.30
2023-01-19T02:50:49.103Z,2.50
2023-01-19T02:53:54.392Z,2.40
2023-01-19T02:56:48.924Z,2.40
2023-01-19T02:59:39.786Z,2.30
2023-01-19T03:02:26.313Z,2.30
2023-01-19T03:05:05.036Z,2.30
2023-01-19T03:08:10.559Z,2.30
2023-01-19T03:10:55.819Z,2.30
2023-01-19T03:13:41.353Z,2.30
2023-01-19T03:16:39.183Z,2.30
2023-01-19T03:19:27.615Z,2.40
2023-01-19T03:22:09.292Z,2.30
2023-01-19T03:24:40.232Z,2.30
2023-01-19T03:27:17.976Z,2.40
2023-01-19T03:29:52.264Z,2.40
2023-01-19T03:32:23.518Z,2.40
2023-01-19T03:34:53.099Z,2.40
2023-01-19T03:37:20.507Z,2.50
2023-01-19T03:39:47.553Z,2.50
2023-01-19T03:42:16.604Z,2.50
2023-01-19T03:44:45.568Z,2.40
2023-01-19T03:47:14.353Z,2.50
2023-01-19T03:49:44.395Z,2.50
2023-01-19T03:52:12.830Z,2.40
2023-01-19T03:54:40.925Z,2.40
2023-01-19T03:57:08.125Z,2.50
2023-01-19T03:59:35.131Z,2.40
2023-01-19T04:02:02.281Z,2.40
2023-01-19T04:04:29.127Z,2.40
2023-01-19T04:06:56.040Z,2.40
2023-01-19T04:09:22.975Z,2.40
2023-01-19T04:11:49.745Z,2.40
2023-01-19T04:14:16.678Z,2.40
2023-01-19T04:16:43.534Z,2.30
2023-01-19T04:19:10.410Z,2.40
2023-01-19T04:21:37.279Z,2.40
2023-01-19T04:24:04.214Z,2.30
2023-01-19T04:26:31.036Z,2.30
2023-01-19T04:28:58.596Z,2.40
2023-01-19T04:31:25.494Z,2.20
2023-01-19T04:33:52.363Z,2.20
2023-01-19T04:36:19.207Z,2.20
2023-01-19T04:38:46.676Z,2.80
2023-01-19T04:41:13.558Z,2.00
2023-01-19T04:43:40.838Z,2.10
2023-01-19T04:46:07.744Z,2.10
2023-01-19T04:48:34.889Z,2.20
2023-01-19T04:51:01.788Z,2.00
2023-01-19T04:53:28.690Z,2.40
2023-01-19T04:55:55.593Z,2.00
2023-01-19T04:58:22.446Z,2.30
2023-01-19T05:00:51.169Z,2.00
2023-01-19T05:03:19.329Z,3.20
2023-01-19T05:05:46.687Z,2.10
2023-01-19T05:08:13.915Z,1.90
2023-01-19T05:10:40.766Z,2.00
2023-01-19T05:13:07.571Z,2.00
2023-01-19T05:15:34.449Z,1.90
2023-01-19T05:18:01.297Z,2.00
2023-01-19T05:20:28.153Z,2.30
2023-01-19T05:22:54.979Z,2.20
2023-01-19T05:25:21.843Z,2.30
2023-01-19T05:27:48.883Z,2.20
2023-01-19T05:30:16.649Z,2.20
2023-01-19T05:32:43.583Z,2.20
2023-01-19T05:35:10.543Z,2.20
2023-01-19T05:37:37.594Z,2.30
2023-01-19T05:40:05.018Z,2.20
2023-01-19T05:42:32.912Z,2.30
2023-01-19T05:45:00.074Z,2.30
2023-01-19T05:47:29.413Z,2.30
2023-01-19T05:49:56.370Z,2.30
2023-01-19T05:52:24.942Z,2.40
2023-01-19T05:54:52.069Z,2.30
2023-01-19T05:57:19.077Z,2.30
2023-01-19T05:59:45.895Z,2.40
2023-01-19T06:02:15.877Z,2.30
2023-01-19T06:04:42.769Z,2.40
2023-01-19T06:07:09.602Z,2.50
2023-01-19T06:09:36.695Z,2.90
2023-01-19T06:12:03.649Z,2.70
2023-01-19T06:14:30.691Z,2.50
2023-01-19T06:16:57.859Z,2.70
2023-01-19T06:19:24.916Z,2.60
2023-01-19T06:21:52.572Z,2.60
2023-01-19T06:24:19.770Z,2.60
2023-01-19T06:26:46.822Z,2.90
2023-01-19T06:29:14.542Z,2.70
2023-01-19T06:31:42.027Z,2.70
2023-01-19T06:34:09.403Z,2.70
2023-01-19T06:36:36.350Z,2.70
2023-01-19T06:39:05.834Z,2.70
2023-01-19T06:41:33.756Z,2.70
2023-01-19T06:44:00.727Z,2.80
2023-01-19T06:46:28.069Z,2.80
2023-01-19T06:48:55.298Z,2.80
2023-01-19T06:51:22.903Z,3.00
2023-01-19T06:53:50.069Z,2.70
2023-01-19T06:56:16.886Z,2.70
2023-01-19T06:58:44.160Z,2.60
2023-01-19T07:01:11.054Z,2.60
2023-01-19T07:03:38.616Z,2.60
2023-01-19T07:06:08.752Z,2.50
2023-01-19T07:08:36.899Z,2.50
2023-01-19T07:11:25.420Z,2.40
2023-01-19T07:13:55.528Z,2.40
2023-01-19T07:16:23.398Z,2.40
2023-01-19T07:18:50.896Z,2.40
2023-01-19T07:21:18.534Z,2.30
2023-01-19T07:23:49.553Z,2.30
2023-01-19T07:26:18.649Z,2.40
2023-01-19T07:28:46.813Z,2.30
2023-01-19T07:31:15.515Z,2.40
2023-01-19T07:33:42.426Z,2.40
2023-01-19T07:36:10.101Z,2.40
2023-01-19T07:38:36.970Z,2.50
2023-01-19T07:41:05.918Z,2.50
2023-01-19T07:43:33.973Z,2.60
2023-01-19T07:46:02.982Z,2.60
2023-01-19T07:48:30.283Z,2.70
2023-01-19T07:51:05.193Z,3.20
2023-01-19T07:53:32.864Z,2.80
2023-01-19T07:55:59.884Z,2.90
2023-01-19T07:58:26.950Z,3.20
2023-01-19T08:00:54.065Z,2.80
2023-01-19T08:03:21.071Z,2.80
2023-01-19T08:05:53.011Z,2.90
2023-01-19T08:08:20.399Z,2.80
2023-01-19T08:10:50.291Z,2.90
2023-01-19T08:13:17.319Z,2.90
2023-01-19T08:15:44.328Z,2.90
2023-01-19T08:18:11.639Z,2.90
2023-01-19T08:20:38.740Z,2.90
2023-01-19T08:23:05.653Z,2.90
2023-01-19T08:25:50.641Z,3.00
2023-01-19T08:28:18.103Z,3.20
2023-01-19T08:30:45.605Z,3.00
2023-01-19T08:33:13.809Z,3.00
2023-01-19T08:35:42.395Z,3.10
2023-01-19T08:38:10.626Z,3.20
2023-01-19T08:40:40.335Z,3.10
2023-01-19T08:43:13.363Z,3.20
2023-01-19T08:45:46.535Z,3.20
2023-01-19T08:48:13.852Z,3.20
2023-01-19T08:50:40.984Z,3.30
2023-01-19T08:53:08.065Z,3.40
2023-01-19T08:55:36.673Z,3.30
2023-01-19T08:58:04.733Z,3.30
2023-01-19T09:00:33.763Z,3.40
2023-01-19T09:03:05.143Z,3.50
2023-01-19T09:05:35.701Z,3.40
2023-01-19T09:08:06.342Z,3.40
2023-01-19T09:10:36.041Z,3.50
2023-01-19T09:13:05.045Z,3.50
2023-01-19T09:15:35.713Z,3.70
2023-01-19T09:18:04.599Z,3.70
2023-01-19T09:20:33.805Z,3.80
2023-01-19T09:23:00.919Z,3.80
2023-01-19T09:25:27.792Z,3.90
2023-01-19T09:27:56.118Z,3.90
2023-01-19T09:30:23.053Z,4.10
2023-01-19T09:32:49.944Z,4.10
2023-01-19T09:35:16.898Z,4.20
2023-01-19T09:37:47.605Z,4.20
2023-01-19T09:40:15.870Z,4.10
2023-01-19T09:42:44.730Z,4.10
2023-01-19T09:45:36.105Z,4.10
2023-01-19T09:48:19.118Z,4.10
2023-01-19T09:50:48.463Z,4.10
2023-01-19T09:53:45.372Z,4.10
2023-01-19T09:56:17.587Z,4.10
2023-01-19T09:58:45.196Z,4.20
2023-01-19T10:01:30.332Z,4.00
2023-01-19T10:04:18.401Z,4.00
2023-01-19T10:06:48.532Z,3.90
2023-01-19T10:09:24.226Z,4.00
2023-01-19T10:12:04.445Z,3.90
2023-01-19T10:14:41.695Z,3.90
2023-01-19T10:17:28.710Z,3.80
2023-01-19T10:19:59.281Z,3.90
2023-01-19T10:22:28.512Z,4.00
2023-01-19T10:24:59.180Z,4.00
2023-01-19T10:27:31.622Z,4.10
2023-01-19T10:30:00.544Z,4.20
2023-01-19T10:32:32.834Z,4.40
2023-01-19T10:35:01.022Z,4.40
2023-01-19T10:37:27.814Z,4.50
2023-01-19T10:40:11.215Z,4.60
2023-01-19T10:42:43.485Z,4.70
2023-01-19T10:45:24.695Z,4.70
2023-01-19T10:47:54.689Z,4.90
2023-01-19T10:50:39.951Z,5.00
2023-01-19T10:53:20.471Z,5.10
2023-01-19T10:55:47.554Z,5.20
2023-01-19T10:58:29.778Z,5.30
2023-01-19T11:01:16.093Z,5.50
2023-01-19T11:03:43.574Z,6.00
2023-01-19T11:06:21.496Z,6.60
2023-01-19T11:08:52.658Z,7.00
2023-01-19T11:11:21.735Z,7.20
2023-01-19T11:14:10.843Z,7.40
2023-01-19T11:16:40.023Z,7.40
2023-01-19T11:19:24.559Z,7.60
2023-01-19T11:21:51.568Z,7.90
2023-01-19T11:24:18.976Z,8.10
2023-01-19T11:26:57.653Z,8.20
2023-01-19T11:29:26.843Z,8.30
2023-01-19T11:31:55.444Z,8.60
2023-01-19T11:34:39.832Z,8.70
2023-01-19T11:37:31.722Z,8.80
2023-01-19T11:40:02.649Z,9.10
2023-01-19T11:42:33.706Z,9.30
2023-01-19T11:45:14.710Z,9.40
2023-01-19T11:47:45.491Z,9.30
2023-01-19T11:50:36.405Z,9.30
2023-01-19T11:53:11.801Z,9.50
2023-01-19T11:55:58.526Z,9.70
2023-01-19T11:58:26.777Z,9.70
2023-01-19T12:01:06.305Z,9.50
2023-01-19T12:03:44.184Z,9.50
2023-01-19T12:06:19.092Z,9.60
2023-01-19T12:08:54.062Z,9.60
2023-01-19T12:11:26.308Z,9.50
2023-01-19T12:13:53.988Z,9.60
2023-01-19T12:16:28.531Z,9.60
2023-01-19T12:19:10.883Z,9.60
2023-01-19T12:21:38.268Z,9.80
2023-01-19T12:24:23.426Z,9.90
2023-01-19T12:27:02.253Z,10.10
2023-01-19T12:29:33.247Z,10.30
2023-01-19T12:32:18.482Z,10.40
2023-01-19T12:34:51.802Z,10.20
2023-01-19T12:37:30.591Z,9.80
2023-01-19T12:40:18.807Z,9.40
2023-01-19T12:42:49.052Z,9.30
2023-01-19T12:45:25.592Z,9.80
2023-01-19T12:47:56.379Z,10.10
2023-01-19T12:50:25.917Z,10.20
2023-01-19T12:52:57.507Z,9.50
2023-01-19T12:55:31.007Z,8.90
2023-01-19T12:58:22.089Z,8.30
2023-01-19T13:00:51.312Z,7.90
2023-01-19T13:03:18.198Z,7.50
2023-01-19T13:05:44.992Z,7.30
2023-01-19T13:08:12.696Z,7.10
2023-01-19T13:11:10.763Z,7.10
2023-01-19T13:13:43.858Z,7.10
2023-01-19T13:16:20.104Z,7.20
2023-01-19T13:19:13.381Z,7.20
2023-01-19T13:21:46.152Z,7.10
2023-01-19T13:24:17.157Z,7.20
2023-01-19T13:26:50.329Z,7.30
2023-01-19T13:29:36.117Z,7.80
2023-01-19T13:32:24.579Z,8.50
2023-01-19T13:35:01.762Z,8.80
2023-01-19T13:37:41.554Z,9.10
2023-01-19T13:40:30.354Z,9.10
2023-01-19T13:42:57.872Z,9.00
2023-01-19T13:45:30.079Z,8.90
2023-01-19T13:47:59.858Z,9.20
2023-01-19T13:50:30.357Z,9.60
2023-01-19T13:52:58.961Z,9.80
2023-01-19T13:55:30.561Z,9.40
2023-01-19T13:57:57.911Z,8.60
2023-01-19T14:00:30.887Z,7.90
2023-01-19T14:03:02.000Z,7.60
2023-01-19T14:05:37.912Z,7.40
2023-01-19T14:08:13.829Z,7.70
2023-01-19T14:11:02.259Z,7.80
2023-01-19T14:13:34.589Z,7.70
2023-01-19T14:16:12.205Z,7.50
2023-01-19T14:18:39.179Z,7.20
2023-01-19T14:21:11.380Z,6.80
2023-01-19T14:23:43.388Z,6.70
2023-01-19T14:26:46.171Z,6.60
2023-01-19T14:29:25.661Z,7.20
2023-01-19T14:32:19.348Z,7.20
2023-01-19T14:35:06.707Z,7.10
2023-01-19T14:37:37.898Z,6.80
2023-01-19T14:40:11.831Z,6.60
2023-01-19T14:42:47.826Z,6.40
2023-01-19T14:45:21.378Z,6.20
2023-01-19T14:47:57.535Z,6.00
2023-01-19T14:50:37.764Z,5.90
2023-01-19T14:53:16.895Z,5.80
2023-01-19T14:56:00.662Z,5.80
2023-01-19T14:58:31.209Z,5.80
2023-01-19T15:00:58.320Z,5.60
2023-01-19T15:03:42.923Z,5.60
2023-01-19T15:06:17.999Z,5.60
2023-01-19T15:08:45.618Z,5.50
2023-01-19T15:11:34.271Z,5.50
2023-01-19T15:14:02.325Z,5.50
2023-01-19T15:16:32.857Z,5.60
2023-01-19T15:19:00.419Z,5.40
2023-01-19T15:21:27.275Z,5.40
2023-01-19T15:23:55.023Z,5.30
2023-01-19T15:26:24.160Z,5.20
2023-01-19T15:28:51.574Z,5.10
2023-01-19T15:31:21.275Z,5.00
2023-01-19T15:33:48.363Z,5.00
2023-01-19T15:36:22.401Z,4.90
2023-01-19T15:38:51.999Z,4.80
2023-01-19T15:41:18.805Z,4.80
2023-01-19T15:43:45.671Z,4.70
2023-01-19T15:46:15.592Z,4.70
2023-01-19T15:48:42.741Z,4.60
2023-01-19T15:51:14.151Z,4.50
2023-01-19T15:53:42.227Z,4.50
2023-01-19T15:56:35.587Z,4.60
2023-01-19T15:59:02.481Z,4.60
2023-01-19T16:01:33.950Z,4.50
2023-01-19T16:04:03.695Z,4.50
2023-01-19T16:06:31.206Z,4.40
2023-01-19T16:09:01.571Z,4.40
2023-01-19T16:11:30.975Z,4.30
2023-01-19T16:13:59.325Z,4.40
2023-01-19T16:16:28.129Z,4.30
2023-01-19T16:18:56.645Z,4.30
2023-01-19T16:21:24.348Z,4.30
2023-01-19T16:23:51.566Z,4.20
2023-01-19T16:26:26.422Z,4.30
2023-01-19T16:28:56.462Z,4.50
2023-01-19T16:31:23.646Z,4.50
2023-01-19T16:33:50.593Z,4.60
2023-01-19T16:36:23.426Z,4.50
2023-01-19T16:38:50.691Z,4.30
2023-01-19T16:41:17.748Z,4.10
2023-01-19T16:43:44.809Z,4.00
2023-01-19T16:46:26.480Z,4.00
2023-01-19T16:48:58.301Z,3.90
2023-01-19T16:51:25.221Z,3.80
2023-01-19T16:53:52.115Z,3.70
2023-01-19T16:56:19.507Z,3.80
2023-01-19T16:58:46.343Z,3.90
2023-01-19T17:01:17.781Z,4.10
2023-01-19T17:03:46.487Z,4.20
2023-01-19T17:06:16.245Z,4.30
2023-01-19T17:08:43.112Z,4.40
2023-01-19T17:11:13.216Z,4.50
2023-01-19T17:13:40.104Z,4.50
2023-01-19T17:16:07.738Z,4.60
2023-01-19T17:18:35.875Z,4.70
2023-01-19T17:21:06.005Z,4.70
2023-01-19T17:23:33.980Z,4.50
2023-01-19T17:26:00.878Z,4.50
2023-01-19T17:28:27.869Z,4.50
2023-01-19T17:30:54.953Z,4.50
2023-01-19T17:33:24.091Z,4.40
2023-01-19T17:35:51.274Z,4.30
2023-01-19T17:38:18.173Z,4.30
2023-01-19T17:40:44.997Z,4.10
2023-01-19T17:43:12.028Z,4.10
2023-01-19T17:45:38.910Z,4.00
2023-01-19T17:48:06.025Z,3.90
2023-01-19T17:50:34.650Z,3.80
2023-01-19T17:53:01.759Z,3.80
2023-01-19T17:55:28.662Z,3.70
2023-01-19T17:57:55.704Z,3.70
2023-01-19T18:00:22.947Z,3.80
2023-01-19T18:02:51.522Z,3.70
2023-01-19T18:05:19.505Z,3.70
2023-01-19T18:07:47.062Z,3.60
2023-01-19T18:10:14.927Z,3.50
2023-01-19T18:12:42.134Z,3.40
2023-01-19T18:15:09.437Z,3.30
2023-01-19T18:17:36.277Z,3.20
2023-01-19T18:20:04.470Z,3.10
2023-01-19T18:22:32.364Z,3.00
2023-01-19T18:25:01.587Z,3.00
2023-01-19T18:27:29.283Z,2.90
2023-01-19T18:29:56.357Z,2.90
2023-01-19T18:32:23.264Z,2.80
2023-01-19T18:34:52.324Z,2.90
2023-01-19T18:37:19.150Z,2.90
2023-01-19T18:39:46.441Z,2.90
2023-01-19T18:42:13.545Z,2.80
2023-01-19T18:44:40.422Z,2.80
2023-01-19T18:47:07.365Z,2.80
2023-01-19T18:49:34.162Z,3.00
2023-01-19T18:52:01.084Z,3.10
2023-01-19T18:54:28.100Z,2.90
2023-01-19T18:56:54.985Z,2.90
2023-01-19T18:59:21.861Z,2.80
2023-01-19T19:01:48.862Z,2.70
2023-01-19T19:04:15.710Z,2.60
2023-01-19T19:06:42.599Z,2.60
2023-01-19T19:09:09.584Z,2.50
2023-01-19T19:11:36.715Z,2.50
2023-01-19T19:14:04.138Z,2.50
2023-01-19T19:16:32.774Z,2.40
2023-01-19T19:19:01.791Z,2.40
2023-01-19T19:21:28.681Z,2.50
2023-01-19T19:23:57.062Z,2.60
2023-01-19T19:26:25.320Z,2.60
2023-01-19T19:28:52.366Z,2.60
2023-01-19T19:31:21.245Z,2.60
2023-01-19T19:33:49.189Z,2.50
2023-01-19T19:36:16.245Z,2.40
2023-01-19T19:38:44.501Z,2.30
2023-01-19T19:41:17.605Z,2.30
2023-01-19T19:43:44.539Z,2.30
2023-01-19T19:46:14.237Z,2.30
2023-01-19T19:48:41.967Z,2.30
2023-01-19T19:51:18.974Z,2.40
2023-01-19T19:53:49.625Z,2.40
2023-01-19T19:56:21.114Z,2.40
2023-01-19T19:58:49.102Z,2.50
2023-01-19T20:01:19.243Z,2.50
2023-01-19T20:03:46.461Z,2.40
2023-01-19T20:06:22.993Z,2.30
2023-01-19T20:08:51.950Z,2.20
2023-01-19T20:11:21.420Z,2.20
2023-01-19T20:13:48.288Z,2.20
2023-01-19T20:16:18.823Z,2.20
2023-01-19T20:18:54.285Z,2.30
2023-01-19T20:21:32.777Z,2.30
2023-01-19T20:24:02.288Z,2.20
2023-01-19T20:26:33.819Z,2.30
2023-01-19T20:29:06.187Z,2.30
2023-01-19T20:31:35.767Z,2.30
2023-01-19T20:34:05.256Z,2.30
2023-01-19T20:36:32.182Z,2.20
2023-01-19T20:39:00.052Z,2.20
2023-01-19T20:41:27.476Z,2.20
2023-01-19T20:43:54.887Z,2.20
2023-01-19T20:46:21.902Z,2.10
2023-01-19T20:48:52.832Z,2.00
2023-01-19T20:51:20.508Z,2.00
2023-01-19T20:53:47.693Z,1.90
2023-01-19T20:56:15.665Z,1.90
2023-01-19T20:58:43.459Z,1.90
2023-01-19T21:01:22.401Z,1.90
2023-01-19T21:03:49.584Z,1.80
2023-01-19T21:06:16.907Z,1.70
2023-01-19T21:08:44.103Z,1.80
2023-01-19T21:11:11.722Z,2.00
2023-01-19T21:13:38.882Z,2.20
2023-01-19T21:16:06.453Z,2.20
2023-01-19T21:18:33.505Z,2.40
2023-01-19T21:21:00.686Z,2.50
2023-01-19T21:23:28.641Z,2.70
2023-01-19T21:25:58.116Z,2.90
2023-01-19T21:28:26.623Z,2.90
2023-01-19T21:30:54.581Z,2.70
2023-01-19T21:33:22.313Z,2.60
2023-01-19T21:35:54.400Z,2.70
2023-01-19T21:38:22.832Z,2.70
2023-01-19T21:40:50.373Z,2.60
2023-01-19T21:43:19.302Z,2.60
2023-01-19T21:45:47.106Z,2.60
2023-01-19T21:48:14.680Z,2.00
2023-01-19T21:50:41.594Z,2.40
2023-01-19T21:53:11.242Z,2.30
2023-01-19T21:55:42.904Z,2.10
2023-01-19T21:58:09.700Z,2.00
2023-01-19T22:00:36.578Z,2.10
2023-01-19T22:03:04.744Z,2.00
2023-01-19T22:05:36.830Z,2.00
2023-01-19T22:08:05.148Z,2.00
2023-01-19T22:10:32.192Z,2.00
2023-01-19T22:12:59.019Z,2.00
2023-01-19T22:15:25.826Z,2.40
2023-01-19T22:17:52.633Z,2.30
2023-01-19T22:20:19.519Z,2.50
2023-01-19T22:22:46.522Z,2.40
2023-01-19T22:25:14.955Z,2.40
2023-01-19T22:27:42.184Z,2.30
2023-01-19T22:30:09.636Z,2.40
2023-01-19T22:32:36.476Z,2.50
2023-01-19T22:35:03.438Z,2.40
2023-01-19T22:37:35.387Z,2.30
2023-01-19T22:40:03.539Z,2.20
2023-01-19T22:42:30.879Z,2.30
2023-01-19T22:44:57.707Z,2.40
2023-01-19T22:47:24.627Z,2.60
2023-01-19T22:49:51.444Z,2.70
2023-01-19T22:52:18.309Z,2.70
2023-01-19T22:54:45.210Z,2.60
2023-01-19T22:57:12.095Z,2.70
2023-01-19T22:59:38.971Z,2.80
2023-01-19T23:02:05.902Z,2.80
2023-01-19T23:04:32.922Z,2.80
2023-01-19T23:06:59.784Z,2.60
2023-01-19T23:09:26.621Z,2.60
2023-01-19T23:11:53.570Z,2.60
2023-01-19T23:14:22.412Z,2.40
2023-01-19T23:16:49.633Z,2.30
2023-01-19T23:19:17.341Z,2.00
2023-01-19T23:21:45.262Z,1.90
2023-01-19T23:24:12.311Z,1.70
2023-01-19T23:26:39.385Z,1.40
2023-01-19T23:29:13.018Z,1.40
2023-01-19T23:31:43.846Z,1.40
2023-01-19T23:34:12.295Z,1.30
2023-01-19T23:36:40.513Z,1.20
2023-01-19T23:39:13.887Z,1.10
2023-01-19T23:41:40.711Z,1.00
2023-01-19T23:44:07.774Z,1.10
2023-01-19T23:46:34.650Z,1.10
2023-01-19T23:49:01.590Z,1.10
2023-01-19T23:51:30.484Z,1.10
2023-01-19T23:53:58.871Z,1.20
2023-01-19T23:56:26.961Z,1.30
2023-01-19T23:59:03.308Z,1.40
